createdAt,value
2022-12-28T00:01:47.153Z,98486.63
2022-12-28T00:04:18.200Z,98480.38
2022-12-28T00:06:50.752Z,98476.03
2022-12-28T00:09:21.171Z,98471.16
2022-12-28T00:11:51.568Z,98466.75
2022-12-28T00:14:21.952Z,98471.94
2022-12-28T00:16:54.952Z,98453.44
2022-12-28T00:19:25.258Z,98447.28
2022-12-28T00:21:56.906Z,98444.84
2022-12-28T00:24:28.755Z,98448.84
2022-12-28T00:26:59.151Z,98432.75
2022-12-28T00:29:29.443Z,98429.31
2022-12-28T00:32:02.467Z,98432.66
2022-12-28T00:34:32.909Z,98420.53
2022-12-28T00:37:08.972Z,98422.03
2022-12-28T00:39:44.043Z,98422.16
2022-12-28T00:42:18.375Z,98425.53
2022-12-28T00:44:48.709Z,98416.19
2022-12-28T00:47:22.318Z,98419.03
2022-12-28T00:49:52.631Z,98425.78
2022-12-28T00:52:22.976Z,98419.41
2022-12-28T00:54:54.735Z,98420.72
2022-12-28T00:57:25.012Z,98423.19
2022-12-28T00:59:55.340Z,98412.13
2022-12-28T01:02:28.282Z,98402.97
2022-12-28T01:04:58.555Z,98414.56
2022-12-28T01:07:28.933Z,98413.00
2022-12-28T01:09:59.220Z,98400.22
2022-12-28T01:12:34.599Z,98405.69
2022-12-28T01:15:10.868Z,98411.59
2022-12-28T01:17:43.994Z,98407.97
2022-12-28T01:20:14.771Z,98404.03
2022-12-28T01:22:45.188Z,98397.69
2022-12-28T01:25:17.013Z,98404.06
2022-12-28T01:27:47.281Z,98400.25
2022-12-28T01:30:18.006Z,98400.63
2022-12-28T01:32:50.986Z,98397.63
2022-12-28T01:35:21.311Z,98394.88
2022-12-28T01:37:51.634Z,98393.47
2022-12-28T01:40:22.155Z,98388.38
2022-12-28T01:42:52.493Z,98379.38
2022-12-28T01:45:25.240Z,98369.59
2022-12-28T01:47:59.515Z,98368.81
2022-12-28T01:50:32.633Z,98371.56
2022-12-28T01:53:07.435Z,98364.41
2022-12-28T01:55:42.983Z,98360.06
2022-12-28T01:58:17.737Z,98368.31
2022-12-28T02:00:48.115Z,98352.56
2022-12-28T02:03:25.194Z,98352.75
2022-12-28T02:05:59.141Z,98343.66
2022-12-28T02:08:37.333Z,98333.19
2022-12-28T02:11:08.716Z,98327.50
2022-12-28T02:13:39.258Z,98321.28
2022-12-28T02:16:12.605Z,98313.06
2022-12-28T02:18:49.761Z,98322.34
2022-12-28T02:21:27.562Z,98324.63
2022-12-28T02:24:23.286Z,98320.66
2022-12-28T02:27:05.113Z,98310.53
2022-12-28T02:30:03.194Z,98315.06
2022-12-28T02:32:48.933Z,98296.13
2022-12-28T02:35:30.559Z,98287.75
2022-12-28T02:38:09.433Z,98284.41
2022-12-28T02:40:46.758Z,98288.28
2022-12-28T02:43:17.755Z,98276.63
2022-12-28T02:46:04.411Z,98267.50
2022-12-28T02:48:55.904Z,98265.38
2022-12-28T02:51:56.040Z,98274.75
2022-12-28T02:55:08.908Z,98257.09
2022-12-28T02:57:58.846Z,98263.22
2022-12-28T03:00:40.355Z,98251.53
2022-12-28T03:03:25.174Z,98251.81
2022-12-28T03:06:19.652Z,98240.72
2022-12-28T03:09:01.340Z,98246.19
2022-12-28T03:11:39.122Z,98239.25
2022-12-28T03:14:16.224Z,98226.63
2022-12-28T03:17:04.391Z,98209.69
2022-12-28T03:19:57.498Z,98207.97
2022-12-28T03:22:43.034Z,98204.81
2022-12-28T03:25:32.478Z,98204.53
2022-12-28T03:28:21.202Z,98194.34
2022-12-28T03:31:09.089Z,98181.25
2022-12-28T03:33:49.006Z,98176.88
2022-12-28T03:36:31.286Z,98182.56
2022-12-28T03:39:13.779Z,98183.16
2022-12-28T03:41:50.909Z,98180.41
2022-12-28T03:44:34.754Z,98174.06
2022-12-28T03:47:12.101Z,98167.72
2022-12-28T03:49:43.958Z,98162.50
2022-12-28T03:52:17.119Z,98143.50
2022-12-28T03:54:49.403Z,98145.09
2022-12-28T03:57:20.083Z,98132.41
2022-12-28T03:59:53.021Z,98140.66
2022-12-28T04:02:23.499Z,98134.91
2022-12-28T04:04:53.950Z,98141.53
2022-12-28T04:07:26.890Z,98134.66
2022-12-28T04:09:57.301Z,98134.47
2022-12-28T04:12:27.724Z,98135.19
2022-12-28T04:15:18.341Z,98131.34
2022-12-28T04:17:48.700Z,98129.00
2022-12-28T04:20:19.368Z,98108.38
2022-12-28T04:22:52.477Z,98110.19
2022-12-28T04:25:22.857Z,98110.44
2022-12-28T04:27:53.987Z,98108.56
2022-12-28T04:30:48.279Z,98104.28
2022-12-28T04:33:18.640Z,98099.13
2022-12-28T04:35:51.438Z,98088.38
2022-12-28T04:38:24.732Z,98092.91
2022-12-28T04:40:55.248Z,98101.91
2022-12-28T04:43:25.649Z,98095.19
2022-12-28T04:46:00.298Z,98078.22
2022-12-28T04:48:31.552Z,98088.50
2022-12-28T04:51:01.676Z,98084.22
2022-12-28T04:53:34.655Z,98080.09
2022-12-28T04:56:07.117Z,98074.19
2022-12-28T04:58:37.851Z,98076.81
2022-12-28T05:01:10.039Z,98064.81
2022-12-28T05:03:42.562Z,98064.56
2022-12-28T05:06:16.883Z,98058.13
2022-12-28T05:08:50.172Z,98056.59
2022-12-28T05:11:22.940Z,98057.44
2022-12-28T05:13:53.975Z,98064.09
2022-12-28T05:16:26.764Z,98051.09
2022-12-28T05:18:58.509Z,98056.84
2022-12-28T05:21:30.999Z,98071.34
2022-12-28T05:24:03.960Z,98058.81
2022-12-28T05:26:34.919Z,98070.56
2022-12-28T05:29:05.497Z,98082.38
2022-12-28T05:31:35.946Z,98071.91
2022-12-28T05:34:06.530Z,98073.13
2022-12-28T05:36:38.105Z,98074.16
2022-12-28T05:39:11.191Z,98063.28
2022-12-28T05:41:41.588Z,98058.19
2022-12-28T05:44:11.897Z,98067.03
2022-12-28T05:46:42.329Z,98053.66
2022-12-28T05:49:13.118Z,98045.59
2022-12-28T05:51:43.534Z,98052.63
2022-12-28T05:54:16.533Z,98056.94
2022-12-28T05:56:46.828Z,98056.44
2022-12-28T05:59:17.242Z,98049.00
2022-12-28T06:01:48.542Z,98049.38
2022-12-28T06:04:21.948Z,98052.75
2022-12-28T06:06:54.393Z,98041.47
2022-12-28T06:09:27.334Z,98041.13
2022-12-28T06:11:57.631Z,98032.34
2022-12-28T06:14:27.893Z,98031.84
2022-12-28T06:16:58.218Z,98046.78
2022-12-28T06:19:28.569Z,98035.53
2022-12-28T06:21:58.921Z,98039.94
2022-12-28T06:24:31.822Z,98040.84
2022-12-28T06:27:02.167Z,98033.44
2022-12-28T06:29:32.437Z,98029.50
2022-12-28T06:32:03.154Z,98017.31
2022-12-28T06:34:33.574Z,98016.00
2022-12-28T06:37:04.414Z,98007.63
2022-12-28T06:39:37.394Z,98003.16
2022-12-28T06:42:07.996Z,97993.28
2022-12-28T06:44:44.364Z,97990.19
2022-12-28T06:47:15.455Z,97990.19
2022-12-28T06:49:45.789Z,97995.91
2022-12-28T06:52:16.125Z,98001.00
2022-12-28T06:54:48.988Z,98005.72
2022-12-28T06:57:19.638Z,97991.19
2022-12-28T06:59:50.023Z,97982.63
2022-12-28T07:02:20.508Z,97985.63
2022-12-28T07:04:50.990Z,97981.19
2022-12-28T07:07:21.325Z,97974.84
2022-12-28T07:09:54.214Z,97970.44
2022-12-28T07:12:24.607Z,97971.22
2022-12-28T07:14:54.941Z,97970.78
2022-12-28T07:17:25.318Z,97956.59
2022-12-28T07:19:55.740Z,97951.00
2022-12-28T07:22:26.118Z,97950.22
2022-12-28T07:24:59.014Z,97946.50
2022-12-28T07:27:29.336Z,97943.84
2022-12-28T07:29:59.640Z,97946.25
2022-12-28T07:32:30.029Z,97945.84
2022-12-28T07:35:00.337Z,97948.59
2022-12-28T07:37:30.644Z,97947.47
2022-12-28T07:40:03.552Z,97952.97
2022-12-28T07:42:33.922Z,97945.28
2022-12-28T07:45:04.257Z,97941.00
2022-12-28T07:47:34.639Z,97935.41
2022-12-28T07:50:05.280Z,97935.41
2022-12-28T07:52:35.656Z,97922.63
2022-12-28T07:55:09.386Z,97911.94
2022-12-28T07:57:39.723Z,97909.31
2022-12-28T08:00:12.476Z,97890.38
2022-12-28T08:02:42.831Z,97893.47
2022-12-28T08:05:13.294Z,97888.31
2022-12-28T08:07:43.753Z,97884.09
2022-12-28T08:10:16.798Z,97890.16
2022-12-28T08:12:47.084Z,97899.41
2022-12-28T08:15:17.521Z,97899.94
2022-12-28T08:17:47.901Z,97902.34
2022-12-28T08:20:18.374Z,97901.88
2022-12-28T08:22:48.863Z,97896.44
2022-12-28T08:25:22.037Z,97890.41
2022-12-28T08:27:52.381Z,97888.66
2022-12-28T08:30:22.761Z,97898.22
2022-12-28T08:32:53.061Z,97890.31
2022-12-28T08:35:23.488Z,97885.69
2022-12-28T08:37:53.784Z,97889.69
2022-12-28T08:40:30.012Z,97889.06
2022-12-28T08:43:01.818Z,97887.28
2022-12-28T08:45:32.329Z,97879.06
2022-12-28T08:48:02.754Z,97870.81
2022-12-28T08:50:33.111Z,97877.84
2022-12-28T08:53:03.477Z,97877.25
2022-12-28T08:55:36.409Z,97868.31
2022-12-28T08:58:06.754Z,97867.69
2022-12-28T09:00:37.198Z,97872.72
2022-12-28T09:03:07.659Z,97874.38
2022-12-28T09:05:40.582Z,97874.31
2022-12-28T09:08:10.951Z,97874.50
2022-12-28T09:10:43.945Z,97896.69
2022-12-28T09:13:14.233Z,97860.41
2022-12-28T09:15:44.569Z,97865.56
2022-12-28T09:18:14.990Z,97863.16
2022-12-28T09:20:48.004Z,97859.53
2022-12-28T09:23:18.471Z,97846.81
2022-12-28T09:25:51.453Z,97861.75
2022-12-28T09:28:21.848Z,97856.75
2022-12-28T09:30:52.331Z,97869.44
2022-12-28T09:33:50.900Z,97867.47
2022-12-28T09:36:26.029Z,97859.97
2022-12-28T09:38:56.869Z,97856.22
2022-12-28T09:41:35.001Z,97862.53
2022-12-28T09:44:41.763Z,97864.03
2022-12-28T09:47:22.862Z,97853.91
2022-12-28T09:50:28.636Z,97845.03
2022-12-28T09:53:23.075Z,97837.84
2022-12-28T09:56:04.265Z,97874.16
2022-12-28T09:58:47.905Z,97840.41
2022-12-28T10:01:21.879Z,97835.50
2022-12-28T10:03:52.671Z,97842.41
2022-12-28T10:06:26.376Z,97841.16
2022-12-28T10:08:59.838Z,97833.31
2022-12-28T10:11:33.554Z,97831.91
2022-12-28T10:14:21.121Z,97816.44
2022-12-28T10:16:51.648Z,97807.44
2022-12-28T10:19:25.960Z,97825.22
2022-12-28T10:22:02.590Z,97790.44
2022-12-28T10:24:33.823Z,97791.81
2022-12-28T10:27:08.639Z,97799.00
2022-12-28T10:29:41.560Z,97794.72
2022-12-28T10:32:13.039Z,97788.41
2022-12-28T10:34:59.033Z,97786.13
2022-12-28T10:37:32.730Z,97777.63
2022-12-28T10:40:06.648Z,97765.59
2022-12-28T10:42:42.939Z,97753.97
2022-12-28T10:45:26.062Z,97769.69
2022-12-28T10:47:58.678Z,97766.63
2022-12-28T10:50:47.763Z,97758.19
2022-12-28T10:53:28.425Z,97756.09
2022-12-28T10:56:09.932Z,97756.28
2022-12-28T10:58:40.568Z,97762.94
2022-12-28T11:01:22.592Z,97751.81
2022-12-28T11:04:08.215Z,97731.53
2022-12-28T11:06:40.063Z,97732.88
2022-12-28T11:09:20.641Z,97726.16
2022-12-28T11:11:53.165Z,97742.63
2022-12-28T11:14:33.702Z,97733.38
2022-12-28T11:17:19.460Z,97735.50
2022-12-28T11:19:58.132Z,97738.41
2022-12-28T11:22:32.054Z,97743.72
2022-12-28T11:25:04.014Z,97737.59
2022-12-28T11:27:34.496Z,97730.19
2022-12-28T11:30:06.562Z,97727.59
2022-12-28T11:32:49.759Z,97743.06
2022-12-28T11:35:22.707Z,97752.47
2022-12-28T11:37:55.640Z,97732.41
2022-12-28T11:40:55.341Z,97739.34
2022-12-28T11:43:54.098Z,97717.72
2022-12-28T11:46:46.177Z,97729.09
2022-12-28T11:49:38.785Z,97716.34
2022-12-28T11:52:48.251Z,97733.97
2022-12-28T11:56:09.281Z,97707.31
2022-12-28T11:59:24.628Z,97715.44
2022-12-28T12:02:06.245Z,97716.19
2022-12-28T12:04:46.407Z,97713.13
2022-12-28T12:07:30.666Z,97713.41
2022-12-28T12:10:34.016Z,97713.69
2022-12-28T12:13:50.490Z,97714.31
2022-12-28T12:16:28.005Z,97704.34
2022-12-28T12:19:01.563Z,97704.75
2022-12-28T12:21:39.926Z,97708.31
2022-12-28T12:24:27.286Z,97693.88
2022-12-28T12:27:06.033Z,97701.13
2022-12-28T12:29:44.237Z,97702.31
2022-12-28T12:32:24.511Z,97695.13
2022-12-28T12:34:58.516Z,97710.19
2022-12-28T12:37:48.417Z,97694.84
2022-12-28T12:40:52.116Z,97695.28
2022-12-28T12:43:33.775Z,97690.69
2022-12-28T12:46:36.149Z,97727.06
2022-12-28T12:49:36.733Z,97691.81
2022-12-28T12:52:25.822Z,97679.81
2022-12-28T12:55:17.621Z,97683.56
2022-12-28T12:58:00.905Z,97676.13
2022-12-28T13:00:48.684Z,97673.94
2022-12-28T13:03:30.501Z,97680.50
2022-12-28T13:06:02.069Z,97665.81
2022-12-28T13:08:39.624Z,97665.28
2022-12-28T13:11:16.456Z,97670.19
2022-12-28T13:13:51.067Z,97661.25
2022-12-28T13:16:25.203Z,97649.50
2022-12-28T13:19:00.759Z,97647.16
2022-12-28T13:21:43.180Z,97645.47
2022-12-28T13:24:23.924Z,97652.59
2022-12-28T13:26:58.461Z,97649.44
2022-12-28T13:29:31.710Z,97661.81
2022-12-28T13:32:02.200Z,97656.78
2022-12-28T13:34:35.360Z,97662.56
2022-12-28T13:37:18.039Z,97666.34
2022-12-28T13:39:48.620Z,97669.31
2022-12-28T13:42:30.268Z,97658.25
2022-12-28T13:45:03.215Z,97651.63
2022-12-28T13:47:37.783Z,97658.16
2022-12-28T13:50:16.312Z,97656.97
2022-12-28T13:52:52.621Z,97651.47
2022-12-28T13:55:27.557Z,97655.22
2022-12-28T13:58:07.081Z,97636.75
2022-12-28T14:00:39.899Z,97640.09
2022-12-28T14:03:14.786Z,97645.94
2022-12-28T14:05:47.639Z,97649.16
2022-12-28T14:08:19.956Z,97643.59
2022-12-28T14:10:51.121Z,97649.31
2022-12-28T14:13:24.941Z,97644.28
2022-12-28T14:15:57.552Z,97629.88
2022-12-28T14:18:30.231Z,97648.47
2022-12-28T14:21:02.043Z,97649.22
2022-12-28T14:23:35.521Z,97639.59
2022-12-28T14:26:09.589Z,97660.91
2022-12-28T14:28:46.861Z,97641.16
2022-12-28T14:31:24.979Z,97648.69
2022-12-28T14:33:58.658Z,97637.03
2022-12-28T14:36:34.108Z,97633.03
2022-12-28T14:39:06.733Z,97631.06
2022-12-28T14:41:41.946Z,97622.03
2022-12-28T14:44:30.745Z,97628.75
2022-12-28T14:47:02.116Z,97637.06
2022-12-28T14:49:42.907Z,97630.13
2022-12-28T14:52:39.984Z,97619.97
2022-12-28T14:55:38.342Z,97624.06
2022-12-28T14:58:18.908Z,97637.69
2022-12-28T15:01:02.474Z,97622.75
2022-12-28T15:03:34.257Z,97639.22
2022-12-28T15:06:04.815Z,97630.78
2022-12-28T15:08:35.255Z,97635.59
2022-12-28T15:11:06.634Z,97623.47
2022-12-28T15:13:37.305Z,97633.75
2022-12-28T15:16:14.492Z,97631.94
2022-12-28T15:18:46.001Z,97623.97
2022-12-28T15:21:19.937Z,97623.66
2022-12-28T15:23:52.857Z,97625.06
2022-12-28T15:26:27.644Z,97628.41
2022-12-28T15:28:58.142Z,97635.78
2022-12-28T15:31:31.140Z,97636.72
2022-12-28T15:34:01.547Z,97622.94
2022-12-28T15:36:31.896Z,97637.78
2022-12-28T15:39:02.684Z,97618.00
2022-12-28T15:41:45.453Z,97621.84
2022-12-28T15:44:16.368Z,97623.19
2022-12-28T15:46:50.288Z,97627.78
2022-12-28T15:49:21.430Z,97615.50
2022-12-28T15:51:51.515Z,97613.69
2022-12-28T15:54:21.820Z,97615.69
2022-12-28T15:56:57.950Z,97614.78
2022-12-28T15:59:28.311Z,97609.25
2022-12-28T16:02:01.465Z,97610.31
2022-12-28T16:04:33.865Z,97606.63
2022-12-28T16:07:04.288Z,97608.44
2022-12-28T16:09:34.685Z,97611.97
2022-12-28T16:12:05.528Z,97606.00
2022-12-28T16:14:35.953Z,97605.69
2022-12-28T16:17:08.935Z,97608.75
2022-12-28T16:19:39.302Z,97625.31
2022-12-28T16:22:10.052Z,97619.50
2022-12-28T16:24:40.437Z,97612.75
2022-12-28T16:27:10.837Z,97619.81
2022-12-28T16:29:41.190Z,97609.22
2022-12-28T16:32:14.393Z,97613.06
2022-12-28T16:34:44.935Z,97614.00
2022-12-28T16:37:15.305Z,97607.41
2022-12-28T16:39:47.023Z,97612.34
2022-12-28T16:42:17.344Z,97598.03
2022-12-28T16:44:48.108Z,97600.94
2022-12-28T16:47:21.159Z,97596.16
2022-12-28T16:49:51.467Z,97607.22
2022-12-28T16:52:23.373Z,97605.84
2022-12-28T16:54:53.683Z,97597.72
2022-12-28T16:57:24.052Z,97594.34
2022-12-28T16:59:54.363Z,97599.56
2022-12-28T17:02:27.583Z,97595.25
2022-12-28T17:04:58.148Z,97596.50
2022-12-28T17:07:28.505Z,97608.75
2022-12-28T17:09:58.853Z,97594.63
2022-12-28T17:12:29.467Z,97608.00
2022-12-28T17:15:04.872Z,97594.03
2022-12-28T17:17:38.281Z,97590.97
2022-12-28T17:20:10.376Z,97592.19
2022-12-28T17:22:40.790Z,97586.94
2022-12-28T17:25:11.919Z,97586.34
2022-12-28T17:27:41.981Z,97589.72
2022-12-28T17:30:13.844Z,97587.44
2022-12-28T17:32:46.862Z,97586.34
2022-12-28T17:35:17.803Z,97578.97
2022-12-28T17:37:48.204Z,97572.41
2022-12-28T17:40:19.826Z,97583.13
2022-12-28T17:42:50.242Z,97577.91
2022-12-28T17:45:20.971Z,97583.06
2022-12-28T17:47:54.040Z,97586.59
2022-12-28T17:50:24.435Z,97578.94
2022-12-28T17:52:54.857Z,97559.91
2022-12-28T17:55:25.207Z,97560.06
2022-12-28T17:57:55.582Z,97548.72
2022-12-28T18:00:26.401Z,97561.91
2022-12-28T18:02:59.559Z,97564.50
2022-12-28T18:05:29.950Z,97553.44
2022-12-28T18:08:00.358Z,97547.91
2022-12-28T18:10:30.679Z,97553.44
2022-12-28T18:13:01.098Z,97550.09
2022-12-28T18:15:33.159Z,97549.78
2022-12-28T18:18:07.022Z,97549.28
2022-12-28T18:20:37.341Z,97558.97
2022-12-28T18:23:07.676Z,97549.75
2022-12-28T18:25:38.118Z,97541.47
2022-12-28T18:28:08.750Z,97554.78
2022-12-28T18:30:39.304Z,97536.88
2022-12-28T18:33:12.409Z,97540.72
2022-12-28T18:35:42.695Z,97539.81
2022-12-28T18:38:13.030Z,97553.13
2022-12-28T18:40:43.435Z,97557.94
2022-12-28T18:43:13.777Z,97549.34
2022-12-28T18:45:44.831Z,97549.03
2022-12-28T18:48:17.795Z,97540.72
2022-12-28T18:50:56.216Z,97541.84
2022-12-28T18:53:28.213Z,97540.16
2022-12-28T18:56:02.854Z,97534.44
2022-12-28T18:58:36.131Z,97527.50
2022-12-28T19:01:08.089Z,97516.31
2022-12-28T19:03:41.715Z,97514.13
2022-12-28T19:06:12.998Z,97509.66
2022-12-28T19:08:43.891Z,97502.16
2022-12-28T19:11:15.078Z,97500.88
2022-12-28T19:13:45.272Z,97484.63
2022-12-28T19:16:25.699Z,97479.75
2022-12-28T19:19:03.910Z,97476.88
2022-12-28T19:21:38.810Z,97489.25
2022-12-28T19:24:15.548Z,97474.69
2022-12-28T19:26:48.305Z,97484.09
2022-12-28T19:29:19.140Z,97467.56
2022-12-28T19:31:49.638Z,97477.38
2022-12-28T19:34:22.649Z,97480.44
2022-12-28T19:36:53.048Z,97475.22
2022-12-28T19:39:23.424Z,97473.53
2022-12-28T19:41:53.788Z,97467.56
2022-12-28T19:44:24.450Z,97465.28
2022-12-28T19:46:55.461Z,97459.28
2022-12-28T19:49:28.656Z,97468.91
2022-12-28T19:51:58.976Z,97454.34
2022-12-28T19:54:29.218Z,97452.81
2022-12-28T19:56:59.512Z,97443.94
2022-12-28T19:59:30.215Z,97438.53
2022-12-28T20:02:01.368Z,97449.91
2022-12-28T20:04:34.663Z,97440.94
2022-12-28T20:07:05.041Z,97442.66
2022-12-28T20:09:35.375Z,97440.75
2022-12-28T20:12:05.616Z,97439.59
2022-12-28T20:14:36.020Z,97432.56
2022-12-28T20:17:06.481Z,97428.94
2022-12-28T20:19:39.717Z,97422.69
2022-12-28T20:22:10.083Z,97414.22
2022-12-28T20:24:40.420Z,97415.22
2022-12-28T20:27:10.784Z,97415.91
2022-12-28T20:29:41.329Z,97419.44
2022-12-28T20:32:11.721Z,97405.06
2022-12-28T20:34:44.672Z,97406.72
2022-12-28T20:37:15.116Z,97403.94
2022-12-28T20:39:45.463Z,97401.69
2022-12-28T20:42:29.813Z,97408.13
2022-12-28T20:45:00.975Z,97416.81
2022-12-28T20:47:31.042Z,97405.00
2022-12-28T20:50:04.077Z,97408.94
2022-12-28T20:52:34.327Z,97395.69
2022-12-28T20:55:04.635Z,97395.97
2022-12-28T20:57:34.974Z,97387.03
2022-12-28T21:00:05.443Z,97388.41
2022-12-28T21:02:35.764Z,97369.50
2022-12-28T21:05:10.175Z,97371.38
2022-12-28T21:07:40.581Z,97374.25
2022-12-28T21:10:12.189Z,97362.28
2022-12-28T21:12:42.530Z,97363.06
2022-12-28T21:15:13.758Z,97362.09
2022-12-28T21:17:44.074Z,97339.28
2022-12-28T21:20:17.461Z,97345.28
2022-12-28T21:22:47.724Z,97348.56
2022-12-28T21:25:18.254Z,97346.47
2022-12-28T21:27:48.612Z,97335.09
2022-12-28T21:30:19.380Z,97352.91
2022-12-28T21:32:54.073Z,97336.63
2022-12-28T21:35:33.692Z,97345.84
2022-12-28T21:38:04.579Z,97334.97
2022-12-28T21:40:34.982Z,97335.66
2022-12-28T21:43:05.318Z,97337.75
2022-12-28T21:45:35.893Z,97328.91
2022-12-28T21:48:06.923Z,97333.25
2022-12-28T21:50:39.931Z,97324.41
2022-12-28T21:53:10.253Z,97325.84
2022-12-28T21:55:46.599Z,97319.53
2022-12-28T21:58:17.032Z,97309.81
2022-12-28T22:01:00.045Z,97314.97
2022-12-28T22:03:42.779Z,97317.75
2022-12-28T22:06:15.760Z,97305.63
2022-12-28T22:08:58.450Z,97311.16
2022-12-28T22:11:41.280Z,97294.78
2022-12-28T22:14:11.875Z,97307.06
2022-12-28T22:16:42.315Z,97297.97
2022-12-28T22:19:12.725Z,97290.94
2022-12-28T22:21:45.733Z,97312.56
2022-12-28T22:24:16.093Z,97300.06
2022-12-28T22:26:46.449Z,97297.81
2022-12-28T22:29:16.974Z,97288.28
2022-12-28T22:31:47.408Z,97276.75
2022-12-28T22:34:17.879Z,97286.47
2022-12-28T22:36:50.873Z,97284.00
2022-12-28T22:39:21.225Z,97271.03
2022-12-28T22:41:51.638Z,97275.31
2022-12-28T22:44:22.048Z,97280.63
2022-12-28T22:46:52.466Z,97257.50
2022-12-28T22:49:23.078Z,97262.72
2022-12-28T22:51:56.056Z,97254.19
2022-12-28T22:54:26.357Z,97259.03
2022-12-28T22:56:56.838Z,97260.84
2022-12-28T22:59:27.339Z,97243.50
2022-12-28T23:01:57.868Z,97249.09
2022-12-28T23:04:28.419Z,97247.59
2022-12-28T23:07:04.007Z,97238.66
2022-12-28T23:09:35.470Z,97239.59
2022-12-28T23:12:05.739Z,97227.00
2022-12-28T23:14:48.443Z,97235.28
2022-12-28T23:17:19.884Z,97225.69
2022-12-28T23:20:02.649Z,97216.63
2022-12-28T23:22:50.078Z,97207.47
2022-12-28T23:25:35.791Z,97220.50
2022-12-28T23:28:09.337Z,97221.09
2022-12-28T23:30:41.726Z,97215.06
2022-12-28T23:33:13.175Z,97220.13
2022-12-28T23:35:43.615Z,97217.84
2022-12-28T23:38:16.646Z,97213.47
2022-12-28T23:41:07.235Z,97210.78
2022-12-28T23:43:37.692Z,97195.75
2022-12-28T23:46:08.697Z,97208.03
2022-12-28T23:48:39.106Z,97201.25
2022-12-28T23:51:11.244Z,97185.53
2022-12-28T23:53:44.920Z,97173.56
2022-12-28T23:56:15.293Z,97183.84
2022-12-28T23:58:45.737Z,97175.56
